CheckWX is a tool to help pilots better visualize weather data.  It is not intended as a substitute for an official pre-flight weather briefing.

07:48:48 UTC

KABQ METAR
Albuquerque International Sunport Airport
Albuquerque, New Mexico, USA
Current

57 mins ago

KABQ 210652Z 27011KT 10SM FEW020 FEW040 BKN100 OVC220 05/00 A2980 RMK AO2 SLP048 MTNS OBSC NE-SE T00500000 401890050 $
Observed
May-21 @ 06:52 UTC
Wind
  • 270° at 11 KTS
Visibility
10 SM
Flight Rules
VFR
Cloud Levels
  • Few at 2,000' AGL
  • Few at 4,000' AGL
  • Broken at 10,000' AGL
  • Overcast at 22,000' AGL
Temperature
C / 41°F
Dewpoint
C / 32°F
Humidity
70%
Altimeter
29.8" Hg
Pressure
1009.12 hPa
Previous

2 hours ago

KABQ 210552Z 25011KT 10SM FEW012 SCT045 BKN060 06/01 A2980 RMK AO2 RAE28 SLP049 MTNS OBSC NE-SE P0000 60001 T00560006 10072 20056 50002 $
Observed
May-21 @ 05:52 UTC
Wind
  • 250° at 11 KTS
Visibility
10 SM
Flight Rules
VFR
Cloud Levels
  • Few at 1,200' AGL
  • Scattered at 4,500' AGL
  • Broken at 6,000' AGL
Temperature
C / 43°F
Dewpoint
C / 34°F
Humidity
71%
Altimeter
29.8" Hg
Pressure
1009.12 hPa
Current Rain
0.01"
Previous

3 hours ago

KABQ 210452Z 20009KT 10SM -RA FEW005 BKN032 BKN075 06/03 A2981 RMK AO2 RAE18B52 SLP053 MTNS OBSC NE-SE P0000 T00560033 $
Observed
May-21 @ 04:52 UTC
Wind
  • 200° at 9 KTS
Visibility
10 SM
Flight Rules
VFR
Conditions
Light Rain
Cloud Levels
  • Few at 500' AGL
  • Broken at 3,200' AGL
  • Broken at 7,500' AGL
Temperature
C / 43°F
Dewpoint
C / 37°F
Humidity
81%
Altimeter
29.81" Hg
Pressure
1009.52 hPa
Current Rain
0.01"